ALA115 UGTB-UNNT
Flight info
| Callsign | ALA115 |
|---|---|
| Flight time | N/A |
| Altitude | 35000 |
| Route | KUFAN A921 IPLED DCT OGANU N55 ATNON/K0809F370 N55 DAKIN B944 GOLIM GOLIM1K |
| Aircraft | A320/M-SDE3FGHIRWY/LB1 |
Departure
| Time | 2026-05-03 20:29 |
|---|---|
| Airport | Tbilisi International Airport (UGTB) |
Arrival
| Time | N/A |
|---|---|
| Airport | Novosibirsk Tolmachevo Airport (UNNT) |
| Time | Latitude | Longitude | Altitude | Speed | Heading |
|---|---|---|---|---|---|
| 2026-05-03 20:15 | 41.66898 | 44.96347 | 1526 ft | 0 kts | 43° |
| 2026-05-03 20:20 | 41.66892 | 44.96340 | 1523 ft | 3 kts | 43° |
| 2026-05-03 20:21 | 41.66877 | 44.96321 | 1518 ft | 3 kts | 43° |
| 2026-05-03 20:21 | 41.66864 | 44.96305 | 1520 ft | 2 kts | 44° |
| 2026-05-03 20:21 | 41.66852 | 44.96286 | 1519 ft | 3 kts | 70° |
| 2026-05-03 20:21 | 41.66849 | 44.96261 | 1518 ft | 3 kts | 110° |
| 2026-05-03 20:22 | 41.66858 | 44.96239 | 1519 ft | 2 kts | 131° |
| 2026-05-03 20:22 | 41.66865 | 44.96230 | 1520 ft | 1 kts | 133° |
| 2026-05-03 20:22 | 41.66865 | 44.96229 | 1520 ft | 2 kts | 133° |
| 2026-05-03 20:25 | 41.66852 | 44.96247 | 1521 ft | 10 kts | 133° |
| 2026-05-03 20:25 | 41.66782 | 44.96347 | 1523 ft | 13 kts | 134° |
| 2026-05-03 20:25 | 41.66708 | 44.96427 | 1524 ft | 15 kts | 163° |
| 2026-05-03 20:26 | 41.66609 | 44.96405 | 1526 ft | 16 kts | 192° |
| 2026-05-03 20:26 | 41.66497 | 44.96370 | 1520 ft | 18 kts | 194° |
| 2026-05-03 20:26 | 41.66370 | 44.96329 | 1523 ft | 20 kts | 193° |
| 2026-05-03 20:26 | 41.66234 | 44.96299 | 1525 ft | 21 kts | 175° |
| 2026-05-03 20:27 | 41.66109 | 44.96380 | 1525 ft | 21 kts | 137° |
| 2026-05-03 20:27 | 41.66017 | 44.96497 | 1522 ft | 19 kts | 135° |
| 2026-05-03 20:27 | 41.65909 | 44.96599 | 1526 ft | 15 kts | 175° |
| 2026-05-03 20:27 | 41.65842 | 44.96510 | 1525 ft | 8 kts | 274° |
| 2026-05-03 20:28 | 41.65863 | 44.96430 | 1523 ft | 10 kts | 315° |
| 2026-05-03 20:28 | 41.65874 | 44.96417 | 1524 ft | 0 kts | 317° |
| 2026-05-03 20:28 | 41.65889 | 44.96399 | 1524 ft | 15 kts | 317° |
| 2026-05-03 20:29 | 41.66182 | 44.96030 | 1523 ft | 98 kts | 317° |
| 2026-05-03 20:29 | 41.66853 | 44.95189 | 1526 ft | 164 kts | 316° |
| 2026-05-03 20:29 | 41.67444 | 44.94431 | 1710 ft | 182 kts | 315° |
| 2026-05-03 20:29 | 41.68677 | 44.92871 | 2634 ft | 182 kts | 316° |
| 2026-05-03 20:30 | 41.69595 | 44.91745 | 3245 ft | 182 kts | 318° |
| 2026-05-03 20:30 | 41.70528 | 44.90599 | 3766 ft | 181 kts | 318° |
| 2026-05-03 20:30 | 41.71141 | 44.89846 | 4022 ft | 181 kts | 318° |
| 2026-05-03 20:30 | 41.72070 | 44.88705 | 4471 ft | 185 kts | 318° |
| 2026-05-03 20:31 | 41.73077 | 44.87469 | 4650 ft | 207 kts | 318° |
| 2026-05-03 20:31 | 41.74196 | 44.86089 | 4814 ft | 230 kts | 318° |
| 2026-05-03 20:31 | 41.75435 | 44.84550 | 4986 ft | 255 kts | 317° |
| 2026-05-03 20:31 | 41.77253 | 44.82282 | 5503 ft | 279 kts | 317° |
| 2026-05-03 20:32 | 41.78224 | 44.81070 | 5959 ft | 283 kts | 317° |
| 2026-05-03 20:32 | 41.79672 | 44.79293 | 6664 ft | 288 kts | 322° |
| 2026-05-03 20:32 | 41.81439 | 44.78019 | 7325 ft | 291 kts | 345° |
| 2026-05-03 20:32 | 41.83459 | 44.77752 | 7996 ft | 294 kts | 8° |
| 2026-05-03 20:33 | 41.85419 | 44.78519 | 8677 ft | 297 kts | 30° |
| 2026-05-03 20:33 | 41.87023 | 44.80212 | 9341 ft | 299 kts | 52° |
| 2026-05-03 20:33 | 41.88050 | 44.82624 | 9931 ft | 300 kts | 76° |
| 2026-05-03 20:33 | 41.88381 | 44.85399 | 10303 ft | 309 kts | 89° |
| 2026-05-03 20:34 | 41.88546 | 44.88393 | 10462 ft | 332 kts | 89° |
| 2026-05-03 20:34 | 41.88711 | 44.91590 | 10776 ft | 348 kts | 89° |
| 2026-05-03 20:34 | 41.88881 | 44.94825 | 11325 ft | 355 kts | 89° |
| 2026-05-03 20:34 | 41.89059 | 44.98155 | 11946 ft | 360 kts | 88° |
| 2026-05-03 20:35 | 41.89244 | 45.01546 | 12547 ft | 366 kts | 88° |
| 2026-05-03 20:35 | 41.89432 | 45.04977 | 13121 ft | 371 kts | 88° |
| 2026-05-03 20:35 | 41.89625 | 45.08453 | 13699 ft | 375 kts | 88° |
| 2026-05-03 20:35 | 41.89819 | 45.11967 | 14188 ft | 380 kts | 88° |
| 2026-05-03 20:36 | 41.90013 | 45.15522 | 14716 ft | 384 kts | 88° |
| 2026-05-03 20:36 | 41.90204 | 45.19107 | 15289 ft | 386 kts | 88° |
| 2026-05-03 20:36 | 41.90394 | 45.22718 | 15844 ft | 389 kts | 88° |
| 2026-05-03 20:36 | 41.90586 | 45.26355 | 16384 ft | 392 kts | 88° |
| 2026-05-03 20:37 | 41.90778 | 45.30024 | 16919 ft | 395 kts | 88° |
| 2026-05-03 20:37 | 41.90966 | 45.33662 | 17451 ft | 397 kts | 88° |
| 2026-05-03 20:37 | 41.91157 | 45.37370 | 17951 ft | 400 kts | 88° |
| 2026-05-03 20:37 | 41.91348 | 45.41119 | 18447 ft | 403 kts | 88° |
| 2026-05-03 20:38 | 41.91539 | 45.44883 | 18900 ft | 405 kts | 88° |
| 2026-05-03 20:38 | 41.91731 | 45.48679 | 19349 ft | 408 kts | 88° |
| 2026-05-03 20:38 | 41.91924 | 45.52490 | 19819 ft | 410 kts | 88° |
| 2026-05-03 20:38 | 41.92118 | 45.56322 | 20295 ft | 412 kts | 88° |
| 2026-05-03 20:39 | 41.92312 | 45.60184 | 20761 ft | 414 kts | 89° |
| 2026-05-03 20:39 | 41.92505 | 45.64057 | 21237 ft | 417 kts | 89° |
| 2026-05-03 20:39 | 41.92698 | 45.67950 | 21704 ft | 419 kts | 89° |
| 2026-05-03 20:39 | 41.92888 | 45.71822 | 22158 ft | 421 kts | 89° |
| 2026-05-03 20:40 | 41.93077 | 45.75762 | 22613 ft | 423 kts | 89° |
| 2026-05-03 20:40 | 41.93266 | 45.79731 | 23059 ft | 425 kts | 89° |
| 2026-05-03 20:40 | 41.93455 | 45.83706 | 23500 ft | 427 kts | 89° |
| 2026-05-03 20:40 | 41.93645 | 45.87707 | 23878 ft | 429 kts | 89° |
| 2026-05-03 20:41 | 41.93830 | 45.91667 | 24237 ft | 430 kts | 89° |
| 2026-05-03 20:41 | 41.94017 | 45.95692 | 24594 ft | 432 kts | 89° |
| 2026-05-03 20:41 | 41.94203 | 45.99732 | 24926 ft | 433 kts | 89° |
| 2026-05-03 20:41 | 41.94390 | 46.03779 | 25267 ft | 435 kts | 89° |
| 2026-05-03 20:42 | 41.94576 | 46.07838 | 25582 ft | 437 kts | 89° |
| 2026-05-03 20:42 | 41.94761 | 46.11918 | 25904 ft | 438 kts | 89° |
| 2026-05-03 20:42 | 41.94941 | 46.15978 | 26208 ft | 440 kts | 89° |
| 2026-05-03 20:42 | 41.95124 | 46.20096 | 26514 ft | 442 kts | 89° |
| 2026-05-03 20:43 | 41.95382 | 46.24225 | 26827 ft | 445 kts | 83° |
| 2026-05-03 20:43 | 41.96089 | 46.28294 | 27111 ft | 449 kts | 73° |
| 2026-05-03 20:43 | 41.97298 | 46.32177 | 27397 ft | 452 kts | 63° |
| 2026-05-03 20:43 | 41.98910 | 46.35747 | 27681 ft | 454 kts | 58° |
| 2026-05-03 20:44 | 42.00619 | 46.39331 | 27962 ft | 456 kts | 58° |
| 2026-05-03 20:44 | 42.02332 | 46.42952 | 28228 ft | 457 kts | 59° |
| 2026-05-03 20:44 | 42.04037 | 46.46580 | 28461 ft | 459 kts | 59° |
| 2026-05-03 20:44 | 42.05744 | 46.50228 | 28724 ft | 461 kts | 59° |
| 2026-05-03 20:45 | 42.07438 | 46.53850 | 28991 ft | 463 kts | 59° |
| 2026-05-03 20:45 | 42.09166 | 46.57533 | 29227 ft | 464 kts | 59° |
| 2026-05-03 20:45 | 42.10892 | 46.61208 | 29470 ft | 465 kts | 59° |
| 2026-05-03 20:45 | 42.12627 | 46.64902 | 29719 ft | 467 kts | 59° |
| 2026-05-03 20:46 | 42.14359 | 46.68601 | 29953 ft | 468 kts | 59° |
| 2026-05-03 20:46 | 42.16096 | 46.72322 | 30158 ft | 469 kts | 59° |
| 2026-05-03 20:46 | 42.17835 | 46.76052 | 30377 ft | 469 kts | 59° |
| 2026-05-03 20:46 | 42.19572 | 46.79788 | 30643 ft | 468 kts | 59° |
| 2026-05-03 20:47 | 42.21282 | 46.83469 | 30838 ft | 469 kts | 59° |
| 2026-05-03 20:47 | 42.23023 | 46.87208 | 31058 ft | 469 kts | 59° |
| 2026-05-03 20:47 | 42.24761 | 46.90943 | 31264 ft | 470 kts | 59° |
| 2026-05-03 20:47 | 42.26504 | 46.94699 | 31482 ft | 470 kts | 59° |
| 2026-05-03 20:48 | 42.28236 | 46.98443 | 31686 ft | 471 kts | 59° |
| 2026-05-03 20:48 | 42.29950 | 47.02155 | 31903 ft | 471 kts | 59° |
| 2026-05-03 20:48 | 42.31688 | 47.05927 | 32112 ft | 472 kts | 59° |
| 2026-05-03 20:48 | 42.33423 | 47.09694 | 32323 ft | 472 kts | 59° |
| 2026-05-03 20:49 | 42.35164 | 47.13471 | 32571 ft | 472 kts | 59° |
| 2026-05-03 20:49 | 42.36901 | 47.17239 | 32803 ft | 472 kts | 59° |
| 2026-05-03 20:49 | 42.38636 | 47.21005 | 33051 ft | 472 kts | 59° |
| 2026-05-03 20:49 | 42.40354 | 47.24735 | 33293 ft | 471 kts | 59° |
| 2026-05-03 20:50 | 42.42089 | 47.28513 | 33518 ft | 471 kts | 59° |
| 2026-05-03 20:50 | 42.43810 | 47.32272 | 33768 ft | 470 kts | 59° |
| 2026-05-03 20:50 | 42.45541 | 47.36053 | 34012 ft | 470 kts | 59° |
| 2026-05-03 20:50 | 42.47261 | 47.39814 | 34221 ft | 470 kts | 59° |
| 2026-05-03 20:51 | 42.48986 | 47.43587 | 34415 ft | 469 kts | 59° |
| 2026-05-03 20:51 | 42.50679 | 47.47298 | 34586 ft | 470 kts | 59° |
| 2026-05-03 20:51 | 42.52398 | 47.51077 | 34754 ft | 470 kts | 59° |
| 2026-05-03 20:51 | 42.54113 | 47.54860 | 34918 ft | 469 kts | 59° |
| 2026-05-03 20:52 | 42.55822 | 47.58640 | 35039 ft | 471 kts | 59° |
| 2026-05-03 20:52 | 42.59266 | 47.66277 | 35065 ft | 478 kts | 59° |
| 2026-05-03 20:53 | 42.62757 | 47.74013 | 35062 ft | 484 kts | 59° |
| 2026-05-03 20:53 | 42.66293 | 47.81845 | 35063 ft | 488 kts | 59° |
| 2026-05-03 20:54 | 42.69849 | 47.89754 | 35061 ft | 491 kts | 60° |
| 2026-05-03 20:54 | 42.75176 | 48.01667 | 35064 ft | 495 kts | 60° |
| 2026-05-03 20:55 | 42.78753 | 48.09694 | 35057 ft | 496 kts | 60° |
| 2026-05-03 20:55 | 42.82332 | 48.17760 | 35059 ft | 497 kts | 60° |
| 2026-05-03 20:56 | 42.85897 | 48.25816 | 35060 ft | 498 kts | 60° |
| 2026-05-03 20:56 | 42.89471 | 48.33903 | 35056 ft | 499 kts | 60° |
| 2026-05-03 20:57 | 42.93052 | 48.42028 | 35056 ft | 499 kts | 60° |
| 2026-05-03 20:57 | 42.96634 | 48.50169 | 35056 ft | 500 kts | 60° |
| 2026-05-03 20:58 | 43.00205 | 48.58326 | 35059 ft | 500 kts | 60° |
| 2026-05-03 20:58 | 43.03779 | 48.66509 | 35055 ft | 501 kts | 60° |
| 2026-05-03 20:59 | 43.07346 | 48.74707 | 35061 ft | 502 kts | 60° |
| 2026-05-03 20:59 | 43.10898 | 48.82886 | 35058 ft | 502 kts | 60° |
| 2026-05-03 21:00 | 43.13864 | 48.89722 | 35054 ft | 503 kts | 60° |
| 2026-05-03 21:00 | 43.18031 | 48.99367 | 35049 ft | 503 kts | 60° |
| 2026-05-03 21:01 | 43.21596 | 49.07640 | 35051 ft | 504 kts | 60° |
| 2026-05-03 21:01 | 43.25128 | 49.15874 | 35052 ft | 504 kts | 60° |
| 2026-05-03 21:02 | 43.28692 | 49.24197 | 35051 ft | 505 kts | 60° |
| 2026-05-03 21:02 | 43.32233 | 49.32479 | 35050 ft | 505 kts | 60° |
| 2026-05-03 21:03 | 43.35787 | 49.40840 | 35052 ft | 506 kts | 60° |
| 2026-05-03 21:03 | 43.39312 | 49.49161 | 35050 ft | 506 kts | 60° |
| 2026-05-03 21:04 | 43.43018 | 49.57423 | 35048 ft | 507 kts | 57° |
| 2026-05-03 21:04 | 43.46947 | 49.65518 | 35042 ft | 507 kts | 56° |
| 2026-05-03 21:05 | 43.50856 | 49.73576 | 35050 ft | 508 kts | 57° |
| 2026-05-03 21:05 | 43.54713 | 49.81735 | 35050 ft | 505 kts | 57° |
| 2026-05-03 21:06 | 43.56582 | 49.85735 | 35033 ft | 486 kts | 57° |
| 2026-05-03 21:06 | 43.58214 | 49.89242 | 35040 ft | 474 kts | 58° |
| 2026-05-03 21:06 | 43.58919 | 49.90751 | 35029 ft | 468 kts | 57° |